sensor_id;sensor_type;location;lat;lon;timestamp;temperature;humidity
2112;DHT22;1062;52.538;13.400;2023-12-20T00:01:32;6.90;99.90
2112;DHT22;1062;52.538;13.400;2023-12-20T00:03:58;7.00;99.90
2112;DHT22;1062;52.538;13.400;2023-12-20T00:06:23;7.00;99.90
2112;DHT22;1062;52.538;13.400;2023-12-20T00:08:49;7.10;99.90
2112;DHT22;1062;52.538;13.400;2023-12-20T00:11:15;7.00;99.90
2112;DHT22;1062;52.538;13.400;2023-12-20T00:13:40;7.00;99.90
2112;DHT22;1062;52.538;13.400;2023-12-20T00:16:06;6.90;99.90
2112;DHT22;1062;52.538;13.400;2023-12-20T00:18:31;6.90;99.90
2112;DHT22;1062;52.538;13.400;2023-12-20T00:20:57;7.00;99.90
2112;DHT22;1062;52.538;13.400;2023-12-20T00:23:23;7.00;99.90
2112;DHT22;1062;52.538;13.400;2023-12-20T00:25:48;7.00;99.90
2112;DHT22;1062;52.538;13.400;2023-12-20T00:28:14;7.00;99.90
2112;DHT22;1062;52.538;13.400;2023-12-20T00:30:40;6.90;99.90
2112;DHT22;1062;52.538;13.400;2023-12-20T00:33:05;7.00;99.90
2112;DHT22;1062;52.538;13.400;2023-12-20T00:35:31;7.00;99.90
2112;DHT22;1062;52.538;13.400;2023-12-20T00:37:57;6.90;99.90
2112;DHT22;1062;52.538;13.400;2023-12-20T00:40:23;6.90;99.90
2112;DHT22;1062;52.538;13.400;2023-12-20T00:42:49;7.00;99.90
2112;DHT22;1062;52.538;13.400;2023-12-20T00:45:15;7.00;99.90
2112;DHT22;1062;52.538;13.400;2023-12-20T00:47:40;7.00;99.90
2112;DHT22;1062;52.538;13.400;2023-12-20T00:50:07;7.00;99.90
2112;DHT22;1062;52.538;13.400;2023-12-20T00:52:32;7.00;99.90
2112;DHT22;1062;52.538;13.400;2023-12-20T00:54:58;7.00;99.90
2112;DHT22;1062;52.538;13.400;2023-12-20T00:57:24;7.00;99.90
2112;DHT22;1062;52.538;13.400;2023-12-20T00:59:49;7.00;99.90
2112;DHT22;1062;52.538;13.400;2023-12-20T01:02:15;7.00;99.90
2112;DHT22;1062;52.538;13.400;2023-12-20T01:04:40;7.00;99.90
2112;DHT22;1062;52.538;13.400;2023-12-20T01:07:06;6.90;99.90
2112;DHT22;1062;52.538;13.400;2023-12-20T01:09:31;7.00;99.90
2112;DHT22;1062;52.538;13.400;2023-12-20T01:11:57;7.00;99.90
2112;DHT22;1062;52.538;13.400;2023-12-20T01:14:22;7.10;99.90
2112;DHT22;1062;52.538;13.400;2023-12-20T01:16:48;7.00;99.90
2112;DHT22;1062;52.538;13.400;2023-12-20T01:19:14;6.90;99.90
2112;DHT22;1062;52.538;13.400;2023-12-20T01:21:40;7.00;99.90
2112;DHT22;1062;52.538;13.400;2023-12-20T01:24:05;7.00;99.90
2112;DHT22;1062;52.538;13.400;2023-12-20T01:26:31;7.00;99.90
2112;DHT22;1062;52.538;13.400;2023-12-20T01:28:57;7.00;99.90
2112;DHT22;1062;52.538;13.400;2023-12-20T01:31:22;7.00;99.90
2112;DHT22;1062;52.538;13.400;2023-12-20T01:33:48;7.00;99.90
2112;DHT22;1062;52.538;13.400;2023-12-20T01:36:14;7.00;99.90
2112;DHT22;1062;52.538;13.400;2023-12-20T01:38:39;7.10;99.90
2112;DHT22;1062;52.538;13.400;2023-12-20T01:41:05;7.00;99.90
2112;DHT22;1062;52.538;13.400;2023-12-20T01:43:31;7.10;99.90
2112;DHT22;1062;52.538;13.400;2023-12-20T01:45:57;7.00;99.90
2112;DHT22;1062;52.538;13.400;2023-12-20T01:48:26;7.00;99.90
2112;DHT22;1062;52.538;13.400;2023-12-20T01:50:54;7.00;99.90
2112;DHT22;1062;52.538;13.400;2023-12-20T01:53:21;6.90;99.90
2112;DHT22;1062;52.538;13.400;2023-12-20T01:55:50;7.00;99.90
2112;DHT22;1062;52.538;13.400;2023-12-20T01:58:17;7.00;99.90
2112;DHT22;1062;52.538;13.400;2023-12-20T02:00:44;7.10;99.90
2112;DHT22;1062;52.538;13.400;2023-12-20T02:03:09;7.00;99.90
2112;DHT22;1062;52.538;13.400;2023-12-20T02:05:36;6.90;99.90
2112;DHT22;1062;52.538;13.400;2023-12-20T02:08:02;6.90;99.90
2112;DHT22;1062;52.538;13.400;2023-12-20T02:10:28;6.90;99.90
2112;DHT22;1062;52.538;13.400;2023-12-20T02:12:54;6.90;99.90
2112;DHT22;1062;52.538;13.400;2023-12-20T02:15:20;6.90;99.90
2112;DHT22;1062;52.538;13.400;2023-12-20T02:17:47;6.90;99.90
2112;DHT22;1062;52.538;13.400;2023-12-20T02:20:13;6.90;99.90
2112;DHT22;1062;52.538;13.400;2023-12-20T02:22:39;6.80;99.90
2112;DHT22;1062;52.538;13.400;2023-12-20T02:25:05;6.80;99.90
2112;DHT22;1062;52.538;13.400;2023-12-20T02:27:31;6.70;99.90
2112;DHT22;1062;52.538;13.400;2023-12-20T02:29:57;6.70;99.90
2112;DHT22;1062;52.538;13.400;2023-12-20T02:32:24;6.70;99.90
2112;DHT22;1062;52.538;13.400;2023-12-20T02:34:52;6.70;99.90
2112;DHT22;1062;52.538;13.400;2023-12-20T02:37:18;6.70;99.90
2112;DHT22;1062;52.538;13.400;2023-12-20T02:39:44;6.70;99.90
2112;DHT22;1062;52.538;13.400;2023-12-20T02:42:09;6.70;99.90
2112;DHT22;1062;52.538;13.400;2023-12-20T02:44:35;6.80;99.90
2112;DHT22;1062;52.538;13.400;2023-12-20T02:47:02;6.80;99.90
2112;DHT22;1062;52.538;13.400;2023-12-20T02:49:27;6.80;99.90
2112;DHT22;1062;52.538;13.400;2023-12-20T02:51:53;6.80;99.90
2112;DHT22;1062;52.538;13.400;2023-12-20T02:54:18;6.80;99.90
2112;DHT22;1062;52.538;13.400;2023-12-20T02:56:44;6.80;99.90
2112;DHT22;1062;52.538;13.400;2023-12-20T02:59:09;6.80;99.90
2112;DHT22;1062;52.538;13.400;2023-12-20T03:01:35;6.80;99.90
2112;DHT22;1062;52.538;13.400;2023-12-20T03:04:06;6.90;99.90
2112;DHT22;1062;52.538;13.400;2023-12-20T03:06:32;6.90;99.90
2112;DHT22;1062;52.538;13.400;2023-12-20T03:08:57;6.80;99.90
2112;DHT22;1062;52.538;13.400;2023-12-20T03:11:27;6.80;99.90
2112;DHT22;1062;52.538;13.400;2023-12-20T03:13:53;6.80;99.90
2112;DHT22;1062;52.538;13.400;2023-12-20T03:16:18;6.80;99.90
2112;DHT22;1062;52.538;13.400;2023-12-20T03:18:44;6.70;99.90
2112;DHT22;1062;52.538;13.400;2023-12-20T03:21:09;6.70;99.90
2112;DHT22;1062;52.538;13.400;2023-12-20T03:23:35;6.70;99.90
2112;DHT22;1062;52.538;13.400;2023-12-20T03:26:01;6.70;99.90
2112;DHT22;1062;52.538;13.400;2023-12-20T03:28:27;6.70;99.90
2112;DHT22;1062;52.538;13.400;2023-12-20T03:30:53;6.70;99.90
2112;DHT22;1062;52.538;13.400;2023-12-20T03:33:18;6.70;99.90
2112;DHT22;1062;52.538;13.400;2023-12-20T03:35:44;6.70;99.90
2112;DHT22;1062;52.538;13.400;2023-12-20T03:38:10;6.70;99.90
2112;DHT22;1062;52.538;13.400;2023-12-20T03:40:35;6.70;99.90
2112;DHT22;1062;52.538;13.400;2023-12-20T03:43:01;6.70;99.90
2112;DHT22;1062;52.538;13.400;2023-12-20T03:45:26;6.60;99.90
2112;DHT22;1062;52.538;13.400;2023-12-20T03:47:52;6.60;99.90
2112;DHT22;1062;52.538;13.400;2023-12-20T03:50:22;6.60;99.90
2112;DHT22;1062;52.538;13.400;2023-12-20T03:52:48;6.60;99.90
2112;DHT22;1062;52.538;13.400;2023-12-20T03:55:14;6.60;99.90
2112;DHT22;1062;52.538;13.400;2023-12-20T03:57:40;6.60;99.90
2112;DHT22;1062;52.538;13.400;2023-12-20T04:00:07;6.50;99.90
2112;DHT22;1062;52.538;13.400;2023-12-20T04:02:39;6.50;99.90
2112;DHT22;1062;52.538;13.400;2023-12-20T04:05:06;6.50;99.90
2112;DHT22;1062;52.538;13.400;2023-12-20T04:07:32;6.50;99.90
2112;DHT22;1062;52.538;13.400;2023-12-20T04:09:57;6.50;99.90
2112;DHT22;1062;52.538;13.400;2023-12-20T04:12:23;6.40;99.90
2112;DHT22;1062;52.538;13.400;2023-12-20T04:14:48;6.40;99.90
2112;DHT22;1062;52.538;13.400;2023-12-20T04:17:15;6.40;99.90
2112;DHT22;1062;52.538;13.400;2023-12-20T04:19:42;6.40;99.90
2112;DHT22;1062;52.538;13.400;2023-12-20T04:22:07;6.30;99.90
2112;DHT22;1062;52.538;13.400;2023-12-20T04:24:33;6.30;99.90
2112;DHT22;1062;52.538;13.400;2023-12-20T04:26:58;6.20;99.90
2112;DHT22;1062;52.538;13.400;2023-12-20T04:29:24;6.20;99.90
2112;DHT22;1062;52.538;13.400;2023-12-20T04:31:50;6.20;99.90
2112;DHT22;1062;52.538;13.400;2023-12-20T04:34:17;6.10;99.90
2112;DHT22;1062;52.538;13.400;2023-12-20T04:36:43;6.10;99.90
2112;DHT22;1062;52.538;13.400;2023-12-20T04:39:08;6.00;99.90
2112;DHT22;1062;52.538;13.400;2023-12-20T04:41:34;6.00;99.90
2112;DHT22;1062;52.538;13.400;2023-12-20T04:43:59;5.90;99.90
2112;DHT22;1062;52.538;13.400;2023-12-20T04:46:26;5.90;99.90
2112;DHT22;1062;52.538;13.400;2023-12-20T04:48:51;5.90;99.90
2112;DHT22;1062;52.538;13.400;2023-12-20T04:51:17;5.80;99.90
2112;DHT22;1062;52.538;13.400;2023-12-20T04:53:43;5.70;99.90
2112;DHT22;1062;52.538;13.400;2023-12-20T04:56:08;5.80;99.90
2112;DHT22;1062;52.538;13.400;2023-12-20T04:58:34;5.70;99.90
2112;DHT22;1062;52.538;13.400;2023-12-20T05:00:59;5.70;99.90
2112;DHT22;1062;52.538;13.400;2023-12-20T05:03:25;5.70;99.90
2112;DHT22;1062;52.538;13.400;2023-12-20T05:05:50;5.70;99.90
2112;DHT22;1062;52.538;13.400;2023-12-20T05:08:16;5.80;99.90
2112;DHT22;1062;52.538;13.400;2023-12-20T05:10:42;5.80;99.90
2112;DHT22;1062;52.538;13.400;2023-12-20T05:13:07;5.80;99.90
2112;DHT22;1062;52.538;13.400;2023-12-20T05:15:33;5.90;99.90
2112;DHT22;1062;52.538;13.400;2023-12-20T05:17:58;5.90;99.90
2112;DHT22;1062;52.538;13.400;2023-12-20T05:20:24;5.90;99.90
2112;DHT22;1062;52.538;13.400;2023-12-20T05:22:50;5.80;99.90
2112;DHT22;1062;52.538;13.400;2023-12-20T05:25:15;5.80;99.90
2112;DHT22;1062;52.538;13.400;2023-12-20T05:27:41;5.80;99.90
2112;DHT22;1062;52.538;13.400;2023-12-20T05:30:07;5.70;99.90
2112;DHT22;1062;52.538;13.400;2023-12-20T05:32:32;5.60;99.90
2112;DHT22;1062;52.538;13.400;2023-12-20T05:34:58;5.60;99.90
2112;DHT22;1062;52.538;13.400;2023-12-20T05:37:23;5.50;99.90
2112;DHT22;1062;52.538;13.400;2023-12-20T05:39:49;5.50;99.90
2112;DHT22;1062;52.538;13.400;2023-12-20T05:42:15;5.50;99.90
2112;DHT22;1062;52.538;13.400;2023-12-20T05:44:40;5.40;99.90
2112;DHT22;1062;52.538;13.400;2023-12-20T05:47:06;5.40;99.90
2112;DHT22;1062;52.538;13.400;2023-12-20T05:49:31;5.40;99.90
2112;DHT22;1062;52.538;13.400;2023-12-20T05:51:57;5.40;99.90
2112;DHT22;1062;52.538;13.400;2023-12-20T05:54:23;5.30;99.90
2112;DHT22;1062;52.538;13.400;2023-12-20T05:56:48;5.20;99.90
2112;DHT22;1062;52.538;13.400;2023-12-20T05:59:14;5.20;99.90
2112;DHT22;1062;52.538;13.400;2023-12-20T06:01:39;5.20;99.90
2112;DHT22;1062;52.538;13.400;2023-12-20T06:04:05;5.20;99.90
2112;DHT22;1062;52.538;13.400;2023-12-20T06:06:31;5.20;99.90
2112;DHT22;1062;52.538;13.400;2023-12-20T06:08:56;5.20;99.90
2112;DHT22;1062;52.538;13.400;2023-12-20T06:11:23;5.20;99.90
2112;DHT22;1062;52.538;13.400;2023-12-20T06:13:49;5.20;99.90
2112;DHT22;1062;52.538;13.400;2023-12-20T06:16:18;5.30;99.90
2112;DHT22;1062;52.538;13.400;2023-12-20T06:18:43;5.20;99.90
2112;DHT22;1062;52.538;13.400;2023-12-20T06:21:09;5.20;99.90
2112;DHT22;1062;52.538;13.400;2023-12-20T06:23:38;5.10;99.90
2112;DHT22;1062;52.538;13.400;2023-12-20T06:26:03;5.20;99.90
2112;DHT22;1062;52.538;13.400;2023-12-20T06:28:29;5.10;99.90
2112;DHT22;1062;52.538;13.400;2023-12-20T06:30:55;5.10;99.90
2112;DHT22;1062;52.538;13.400;2023-12-20T06:33:20;5.10;99.90
2112;DHT22;1062;52.538;13.400;2023-12-20T06:35:48;5.20;99.90
2112;DHT22;1062;52.538;13.400;2023-12-20T06:38:13;5.20;99.90
2112;DHT22;1062;52.538;13.400;2023-12-20T06:40:39;5.20;99.90
2112;DHT22;1062;52.538;13.400;2023-12-20T06:43:04;5.30;99.90
2112;DHT22;1062;52.538;13.400;2023-12-20T06:45:32;5.30;99.90
2112;DHT22;1062;52.538;13.400;2023-12-20T06:47:57;5.30;99.90
2112;DHT22;1062;52.538;13.400;2023-12-20T06:50:23;5.20;99.90
2112;DHT22;1062;52.538;13.400;2023-12-20T06:52:49;5.20;99.90
2112;DHT22;1062;52.538;13.400;2023-12-20T06:55:15;5.20;99.90
2112;DHT22;1062;52.538;13.400;2023-12-20T06:57:40;5.30;99.90
2112;DHT22;1062;52.538;13.400;2023-12-20T07:00:07;5.30;99.90
2112;DHT22;1062;52.538;13.400;2023-12-20T07:02:33;5.30;99.90
2112;DHT22;1062;52.538;13.400;2023-12-20T07:04:59;5.30;99.90
2112;DHT22;1062;52.538;13.400;2023-12-20T07:07:25;5.30;99.90
2112;DHT22;1062;52.538;13.400;2023-12-20T07:09:51;5.30;99.90
2112;DHT22;1062;52.538;13.400;2023-12-20T07:12:17;5.30;99.90
2112;DHT22;1062;52.538;13.400;2023-12-20T07:14:45;5.30;99.90
2112;DHT22;1062;52.538;13.400;2023-12-20T07:17:10;5.40;99.90
2112;DHT22;1062;52.538;13.400;2023-12-20T07:19:39;5.40;99.90
2112;DHT22;1062;52.538;13.400;2023-12-20T07:22:06;5.50;99.90
2112;DHT22;1062;52.538;13.400;2023-12-20T07:24:32;5.50;99.90
2112;DHT22;1062;52.538;13.400;2023-12-20T07:26:59;5.50;99.90
2112;DHT22;1062;52.538;13.400;2023-12-20T07:29:24;5.50;99.90
2112;DHT22;1062;52.538;13.400;2023-12-20T07:31:50;5.60;99.90
2112;DHT22;1062;52.538;13.400;2023-12-20T07:34:17;5.60;99.90
2112;DHT22;1062;52.538;13.400;2023-12-20T07:36:43;5.60;99.90
2112;DHT22;1062;52.538;13.400;2023-12-20T07:39:08;5.80;99.90
2112;DHT22;1062;52.538;13.400;2023-12-20T07:41:34;5.80;99.90
2112;DHT22;1062;52.538;13.400;2023-12-20T07:43:59;5.70;99.90
2112;DHT22;1062;52.538;13.400;2023-12-20T07:46:25;5.70;99.90
2112;DHT22;1062;52.538;13.400;2023-12-20T07:48:51;5.70;99.90
2112;DHT22;1062;52.538;13.400;2023-12-20T07:51:16;5.80;99.90
2112;DHT22;1062;52.538;13.400;2023-12-20T07:53:42;5.70;99.90
2112;DHT22;1062;52.538;13.400;2023-12-20T07:56:18;5.80;99.90
2112;DHT22;1062;52.538;13.400;2023-12-20T07:58:45;5.80;99.90
2112;DHT22;1062;52.538;13.400;2023-12-20T08:01:11;5.80;99.90
2112;DHT22;1062;52.538;13.400;2023-12-20T08:03:37;5.90;99.90
2112;DHT22;1062;52.538;13.400;2023-12-20T08:06:03;5.80;99.90
2112;DHT22;1062;52.538;13.400;2023-12-20T08:08:29;5.90;99.90
2112;DHT22;1062;52.538;13.400;2023-12-20T08:10:54;5.90;99.90
2112;DHT22;1062;52.538;13.400;2023-12-20T08:13:20;5.80;99.90
2112;DHT22;1062;52.538;13.400;2023-12-20T08:15:50;5.80;99.90
2112;DHT22;1062;52.538;13.400;2023-12-20T08:18:16;5.80;99.90
2112;DHT22;1062;52.538;13.400;2023-12-20T08:20:41;5.80;99.90
2112;DHT22;1062;52.538;13.400;2023-12-20T08:23:07;5.80;99.90
2112;DHT22;1062;52.538;13.400;2023-12-20T08:25:32;5.80;99.90
2112;DHT22;1062;52.538;13.400;2023-12-20T08:27:58;5.80;99.90
2112;DHT22;1062;52.538;13.400;2023-12-20T08:30:23;5.80;99.90
2112;DHT22;1062;52.538;13.400;2023-12-20T08:32:50;5.80;99.90
2112;DHT22;1062;52.538;13.400;2023-12-20T08:35:16;5.80;99.90
2112;DHT22;1062;52.538;13.400;2023-12-20T08:37:43;5.80;99.90
2112;DHT22;1062;52.538;13.400;2023-12-20T08:40:09;5.80;99.90
2112;DHT22;1062;52.538;13.400;2023-12-20T08:42:35;5.90;99.90
2112;DHT22;1062;52.538;13.400;2023-12-20T08:45:00;5.90;99.90
2112;DHT22;1062;52.538;13.400;2023-12-20T08:47:26;5.90;99.90
2112;DHT22;1062;52.538;13.400;2023-12-20T08:49:52;6.00;99.90
2112;DHT22;1062;52.538;13.400;2023-12-20T08:52:22;6.00;99.90
2112;DHT22;1062;52.538;13.400;2023-12-20T08:54:48;6.00;99.90
2112;DHT22;1062;52.538;13.400;2023-12-20T08:57:14;6.10;99.90
2112;DHT22;1062;52.538;13.400;2023-12-20T08:59:39;6.10;99.90
2112;DHT22;1062;52.538;13.400;2023-12-20T09:02:05;6.10;99.90
2112;DHT22;1062;52.538;13.400;2023-12-20T09:04:31;6.10;99.90
2112;DHT22;1062;52.538;13.400;2023-12-20T09:06:59;6.20;99.90
2112;DHT22;1062;52.538;13.400;2023-12-20T09:09:24;6.30;99.90
2112;DHT22;1062;52.538;13.400;2023-12-20T09:11:50;6.30;99.90
2112;DHT22;1062;52.538;13.400;2023-12-20T09:14:16;6.40;99.90
2112;DHT22;1062;52.538;13.400;2023-12-20T09:16:42;6.50;99.90
2112;DHT22;1062;52.538;13.400;2023-12-20T09:19:07;6.60;99.90
2112;DHT22;1062;52.538;13.400;2023-12-20T09:21:33;6.50;99.90
2112;DHT22;1062;52.538;13.400;2023-12-20T09:23:59;6.50;99.90
2112;DHT22;1062;52.538;13.400;2023-12-20T09:26:24;6.60;99.90
2112;DHT22;1062;52.538;13.400;2023-12-20T09:28:50;6.50;99.90
2112;DHT22;1062;52.538;13.400;2023-12-20T09:31:15;6.50;99.90
2112;DHT22;1062;52.538;13.400;2023-12-20T09:33:41;6.50;99.90
2112;DHT22;1062;52.538;13.400;2023-12-20T09:36:07;6.50;99.90
2112;DHT22;1062;52.538;13.400;2023-12-20T09:38:32;6.40;99.90
2112;DHT22;1062;52.538;13.400;2023-12-20T09:40:58;6.40;99.90
2112;DHT22;1062;52.538;13.400;2023-12-20T09:43:24;6.50;99.90
2112;DHT22;1062;52.538;13.400;2023-12-20T09:46:00;6.50;99.90
2112;DHT22;1062;52.538;13.400;2023-12-20T09:48:27;6.50;99.90
2112;DHT22;1062;52.538;13.400;2023-12-20T09:50:54;6.50;99.90
2112;DHT22;1062;52.538;13.400;2023-12-20T09:53:21;6.50;99.90
2112;DHT22;1062;52.538;13.400;2023-12-20T09:55:48;6.50;99.90
2112;DHT22;1062;52.538;13.400;2023-12-20T09:58:14;6.50;99.90
2112;DHT22;1062;52.538;13.400;2023-12-20T10:00:40;6.50;99.90
2112;DHT22;1062;52.538;13.400;2023-12-20T10:03:06;6.50;99.90
2112;DHT22;1062;52.538;13.400;2023-12-20T10:05:33;6.50;99.90
2112;DHT22;1062;52.538;13.400;2023-12-20T10:08:00;6.50;99.90
2112;DHT22;1062;52.538;13.400;2023-12-20T10:10:26;6.50;99.90
2112;DHT22;1062;52.538;13.400;2023-12-20T10:13:06;6.50;99.90
2112;DHT22;1062;52.538;13.400;2023-12-20T10:15:33;6.60;99.90
2112;DHT22;1062;52.538;13.400;2023-12-20T10:18:00;6.60;99.90
2112;DHT22;1062;52.538;13.400;2023-12-20T10:20:27;6.60;99.90
2112;DHT22;1062;52.538;13.400;2023-12-20T10:22:57;6.60;99.90
2112;DHT22;1062;52.538;13.400;2023-12-20T10:25:24;6.60;99.90
2112;DHT22;1062;52.538;13.400;2023-12-20T10:27:50;6.60;99.90
2112;DHT22;1062;52.538;13.400;2023-12-20T10:30:23;6.60;99.90
2112;DHT22;1062;52.538;13.400;2023-12-20T10:32:50;6.60;99.90
2112;DHT22;1062;52.538;13.400;2023-12-20T10:35:16;6.60;99.90
2112;DHT22;1062;52.538;13.400;2023-12-20T10:37:42;6.60;99.90
2112;DHT22;1062;52.538;13.400;2023-12-20T10:40:08;6.60;99.90
2112;DHT22;1062;52.538;13.400;2023-12-20T10:42:34;6.60;99.90
2112;DHT22;1062;52.538;13.400;2023-12-20T10:45:01;6.70;99.90
2112;DHT22;1062;52.538;13.400;2023-12-20T10:47:28;6.70;99.90
2112;DHT22;1062;52.538;13.400;2023-12-20T10:49:55;6.70;99.90
2112;DHT22;1062;52.538;13.400;2023-12-20T10:52:23;6.70;99.90
2112;DHT22;1062;52.538;13.400;2023-12-20T10:54:50;6.80;99.90
2112;DHT22;1062;52.538;13.400;2023-12-20T10:57:17;6.80;99.90
2112;DHT22;1062;52.538;13.400;2023-12-20T10:59:45;6.80;99.90
2112;DHT22;1062;52.538;13.400;2023-12-20T11:02:14;6.80;99.90
2112;DHT22;1062;52.538;13.400;2023-12-20T11:04:46;6.80;99.90
2112;DHT22;1062;52.538;13.400;2023-12-20T11:07:29;6.80;99.90
2112;DHT22;1062;52.538;13.400;2023-12-20T11:10:00;6.80;99.90
2112;DHT22;1062;52.538;13.400;2023-12-20T11:12:47;6.80;99.90
2112;DHT22;1062;52.538;13.400;2023-12-20T11:15:15;6.90;99.90
2112;DHT22;1062;52.538;13.400;2023-12-20T11:17:45;6.80;99.90
2112;DHT22;1062;52.538;13.400;2023-12-20T11:20:12;6.80;99.90
2112;DHT22;1062;52.538;13.400;2023-12-20T11:22:38;6.90;99.90
2112;DHT22;1062;52.538;13.400;2023-12-20T11:25:08;6.80;99.90
2112;DHT22;1062;52.538;13.400;2023-12-20T11:27:34;6.80;99.90
2112;DHT22;1062;52.538;13.400;2023-12-20T11:30:03;6.80;99.90
2112;DHT22;1062;52.538;13.400;2023-12-20T11:32:28;6.80;99.90
2112;DHT22;1062;52.538;13.400;2023-12-20T11:35:00;6.80;99.90
2112;DHT22;1062;52.538;13.400;2023-12-20T11:37:35;6.80;99.90
2112;DHT22;1062;52.538;13.400;2023-12-20T11:40:08;6.70;99.90
2112;DHT22;1062;52.538;13.400;2023-12-20T11:42:49;6.70;99.90
2112;DHT22;1062;52.538;13.400;2023-12-20T11:45:23;6.70;99.90
2112;DHT22;1062;52.538;13.400;2023-12-20T11:47:50;6.70;99.90
2112;DHT22;1062;52.538;13.400;2023-12-20T11:50:17;6.80;99.90
2112;DHT22;1062;52.538;13.400;2023-12-20T11:52:43;6.90;99.90
2112;DHT22;1062;52.538;13.400;2023-12-20T11:55:08;6.90;99.90
2112;DHT22;1062;52.538;13.400;2023-12-20T11:57:35;6.80;99.90
2112;DHT22;1062;52.538;13.400;2023-12-20T12:00:02;6.80;99.90
2112;DHT22;1062;52.538;13.400;2023-12-20T12:02:28;6.80;99.90
2112;DHT22;1062;52.538;13.400;2023-12-20T12:04:53;6.80;99.90
2112;DHT22;1062;52.538;13.400;2023-12-20T12:07:21;6.90;99.90
2112;DHT22;1062;52.538;13.400;2023-12-20T12:09:47;6.90;99.90
2112;DHT22;1062;52.538;13.400;2023-12-20T12:12:13;7.00;99.90
2112;DHT22;1062;52.538;13.400;2023-12-20T12:14:39;6.90;99.90
2112;DHT22;1062;52.538;13.400;2023-12-20T12:17:15;6.90;99.90
2112;DHT22;1062;52.538;13.400;2023-12-20T12:19:42;6.90;99.90
2112;DHT22;1062;52.538;13.400;2023-12-20T12:22:13;7.00;99.90
2112;DHT22;1062;52.538;13.400;2023-12-20T12:24:46;7.00;99.90
2112;DHT22;1062;52.538;13.400;2023-12-20T12:27:13;6.90;99.90
2112;DHT22;1062;52.538;13.400;2023-12-20T12:29:39;7.00;99.90
2112;DHT22;1062;52.538;13.400;2023-12-20T12:32:08;6.90;99.90
2112;DHT22;1062;52.538;13.400;2023-12-20T12:34:35;6.90;99.90
2112;DHT22;1062;52.538;13.400;2023-12-20T12:37:01;6.80;99.90
2112;DHT22;1062;52.538;13.400;2023-12-20T12:39:27;6.70;99.90
2112;DHT22;1062;52.538;13.400;2023-12-20T12:41:53;6.60;99.90
2112;DHT22;1062;52.538;13.400;2023-12-20T12:44:19;6.60;99.90
2112;DHT22;1062;52.538;13.400;2023-12-20T12:46:46;6.50;99.90
2112;DHT22;1062;52.538;13.400;2023-12-20T12:49:12;6.50;99.90
2112;DHT22;1062;52.538;13.400;2023-12-20T12:51:38;6.40;99.90
2112;DHT22;1062;52.538;13.400;2023-12-20T12:54:04;6.50;99.90
2112;DHT22;1062;52.538;13.400;2023-12-20T12:56:29;6.40;99.90
2112;DHT22;1062;52.538;13.400;2023-12-20T12:58:56;6.40;99.90
2112;DHT22;1062;52.538;13.400;2023-12-20T13:01:21;6.40;99.90
2112;DHT22;1062;52.538;13.400;2023-12-20T13:03:47;6.50;99.90
2112;DHT22;1062;52.538;13.400;2023-12-20T13:06:13;6.40;99.90
2112;DHT22;1062;52.538;13.400;2023-12-20T13:08:38;6.50;99.90
2112;DHT22;1062;52.538;13.400;2023-12-20T13:11:04;6.40;99.90
2112;DHT22;1062;52.538;13.400;2023-12-20T13:13:30;6.40;99.90
2112;DHT22;1062;52.538;13.400;2023-12-20T13:15:56;6.40;99.90
2112;DHT22;1062;52.538;13.400;2023-12-20T13:18:22;6.40;99.90
2112;DHT22;1062;52.538;13.400;2023-12-20T13:20:48;6.30;99.90
2112;DHT22;1062;52.538;13.400;2023-12-20T13:23:14;6.30;99.90
2112;DHT22;1062;52.538;13.400;2023-12-20T13:25:41;6.20;99.90
2112;DHT22;1062;52.538;13.400;2023-12-20T13:28:07;6.10;99.90
2112;DHT22;1062;52.538;13.400;2023-12-20T13:30:34;6.00;99.90
2112;DHT22;1062;52.538;13.400;2023-12-20T13:32:59;6.00;99.90
2112;DHT22;1062;52.538;13.400;2023-12-20T13:35:25;5.90;99.90
2112;DHT22;1062;52.538;13.400;2023-12-20T13:37:50;5.90;99.90
2112;DHT22;1062;52.538;13.400;2023-12-20T13:40:17;5.80;99.90
2112;DHT22;1062;52.538;13.400;2023-12-20T13:42:43;5.80;99.90
2112;DHT22;1062;52.538;13.400;2023-12-20T13:45:09;5.80;99.90
2112;DHT22;1062;52.538;13.400;2023-12-20T13:47:35;5.80;99.90
2112;DHT22;1062;52.538;13.400;2023-12-20T13:50:00;5.70;99.90
2112;DHT22;1062;52.538;13.400;2023-12-20T13:52:26;5.70;99.90
2112;DHT22;1062;52.538;13.400;2023-12-20T13:54:52;5.70;99.90
2112;DHT22;1062;52.538;13.400;2023-12-20T13:57:17;5.60;99.90
2112;DHT22;1062;52.538;13.400;2023-12-20T13:59:43;5.50;99.90
2112;DHT22;1062;52.538;13.400;2023-12-20T14:02:09;5.50;99.90
2112;DHT22;1062;52.538;13.400;2023-12-20T14:04:34;5.50;99.90
2112;DHT22;1062;52.538;13.400;2023-12-20T14:07:01;5.40;99.90
2112;DHT22;1062;52.538;13.400;2023-12-20T14:09:26;5.40;99.90
2112;DHT22;1062;52.538;13.400;2023-12-20T14:11:52;5.30;99.90
2112;DHT22;1062;52.538;13.400;2023-12-20T14:14:18;5.40;99.90
2112;DHT22;1062;52.538;13.400;2023-12-20T14:16:44;5.30;99.90
2112;DHT22;1062;52.538;13.400;2023-12-20T14:19:11;5.30;99.90
2112;DHT22;1062;52.538;13.400;2023-12-20T14:21:36;5.30;99.90
2112;DHT22;1062;52.538;13.400;2023-12-20T14:24:02;5.40;99.90
2112;DHT22;1062;52.538;13.400;2023-12-20T14:26:29;5.40;99.90
2112;DHT22;1062;52.538;13.400;2023-12-20T14:28:55;5.40;99.90
2112;DHT22;1062;52.538;13.400;2023-12-20T14:31:20;5.40;99.90
2112;DHT22;1062;52.538;13.400;2023-12-20T14:33:48;5.50;99.90
2112;DHT22;1062;52.538;13.400;2023-12-20T14:36:16;5.50;99.90
2112;DHT22;1062;52.538;13.400;2023-12-20T14:38:43;5.50;99.90
2112;DHT22;1062;52.538;13.400;2023-12-20T14:41:09;5.50;99.90
2112;DHT22;1062;52.538;13.400;2023-12-20T14:43:35;5.40;99.90
2112;DHT22;1062;52.538;13.400;2023-12-20T14:46:01;5.50;99.90
2112;DHT22;1062;52.538;13.400;2023-12-20T14:48:26;5.40;99.90
2112;DHT22;1062;52.538;13.400;2023-12-20T14:50:55;5.30;99.90
2112;DHT22;1062;52.538;13.400;2023-12-20T14:53:20;5.40;99.90
2112;DHT22;1062;52.538;13.400;2023-12-20T14:55:46;5.40;99.90
2112;DHT22;1062;52.538;13.400;2023-12-20T14:58:12;5.40;99.90
2112;DHT22;1062;52.538;13.400;2023-12-20T15:00:38;5.40;99.90
2112;DHT22;1062;52.538;13.400;2023-12-20T15:03:04;5.50;99.90
2112;DHT22;1062;52.538;13.400;2023-12-20T15:05:30;5.40;99.90
2112;DHT22;1062;52.538;13.400;2023-12-20T15:07:56;5.50;99.90
2112;DHT22;1062;52.538;13.400;2023-12-20T15:10:21;5.50;99.90
2112;DHT22;1062;52.538;13.400;2023-12-20T15:12:47;5.50;99.90
2112;DHT22;1062;52.538;13.400;2023-12-20T15:15:13;5.50;99.90
2112;DHT22;1062;52.538;13.400;2023-12-20T15:17:39;5.50;99.90
2112;DHT22;1062;52.538;13.400;2023-12-20T15:20:05;5.50;99.90
2112;DHT22;1062;52.538;13.400;2023-12-20T15:22:31;5.50;99.90
2112;DHT22;1062;52.538;13.400;2023-12-20T15:24:59;5.50;99.90
2112;DHT22;1062;52.538;13.400;2023-12-20T15:27:25;5.50;99.90
2112;DHT22;1062;52.538;13.400;2023-12-20T15:29:50;5.50;99.90
2112;DHT22;1062;52.538;13.400;2023-12-20T15:32:17;5.50;99.90
2112;DHT22;1062;52.538;13.400;2023-12-20T15:34:44;5.50;99.90
2112;DHT22;1062;52.538;13.400;2023-12-20T15:37:10;5.40;99.90
2112;DHT22;1062;52.538;13.400;2023-12-20T15:39:36;5.30;99.90
2112;DHT22;1062;52.538;13.400;2023-12-20T15:42:02;5.20;99.90
2112;DHT22;1062;52.538;13.400;2023-12-20T15:44:28;5.10;99.90
2112;DHT22;1062;52.538;13.400;2023-12-20T15:46:54;5.10;99.90
2112;DHT22;1062;52.538;13.400;2023-12-20T15:49:19;5.00;99.90
2112;DHT22;1062;52.538;13.400;2023-12-20T15:51:45;5.00;99.90
2112;DHT22;1062;52.538;13.400;2023-12-20T15:54:11;4.90;99.90
2112;DHT22;1062;52.538;13.400;2023-12-20T15:56:36;4.90;99.90